Time;durP1;ratioP1;P1;durP2;ratioP2;P2;SDS_P1;SDS_P2;PMS_P1;PMS_P2;Temp;Humidity;BMP_temperature;BMP_pressure;BME280_temperature;BME280_humidity;BME280_pressure;Samples;Min_cycle;Max_cycle;Signal;HPM_P1;HPM_P2
2022/04/13 00:01:27;;;;;;;21.00;5.45;;;;;;;14.17;68.30;101118.50;5075714;28;20056;-79
2022/04/13 00:03:53;;;;;;;16.75;5.95;;;;;;;14.17;68.50;101118.50;5075087;28;20021;-78
2022/04/13 00:06:18;;;;;;;20.90;5.45;;;;;;;14.19;68.30;101112.88;5075069;28;20025;-78
2022/04/13 00:08:44;;;;;;;22.35;6.22;;;;;;;14.20;68.37;101118.09;5075003;28;20045;-80
2022/04/13 00:11:10;;;;;;;21.83;6.63;;;;;;;14.23;68.76;101106.88;5075723;28;20029;-79
2022/04/13 00:13:35;;;;;;;19.10;6.25;;;;;;;14.27;69.31;101110.88;5074864;28;20085;-79
2022/04/13 00:16:00;;;;;;;19.48;5.70;;;;;;;14.27;69.00;101105.44;5075042;28;20170;-80
2022/04/13 00:18:26;;;;;;;21.70;5.78;;;;;;;14.19;69.12;101102.91;5071912;28;20040;-77
2022/04/13 00:20:51;;;;;;;21.73;5.55;;;;;;;14.18;69.44;101106.63;5070944;28;20033;-77
2022/04/13 00:23:16;;;;;;;18.35;6.13;;;;;;;14.16;69.39;101102.44;5071953;28;20029;-76
2022/04/13 00:25:43;;;;;;;23.77;6.82;;;;;;;14.16;69.99;101107.88;5072280;28;20021;-77
2022/04/13 00:28:10;;;;;;;26.27;6.45;;;;;;;14.15;69.91;101117.84;5071484;28;20041;-76
2022/04/13 00:30:38;;;;;;;21.65;6.05;;;;;;;14.15;70.25;101112.44;5062586;28;20138;-77
2022/04/13 00:33:04;;;;;;;23.45;6.97;;;;;;;14.17;70.40;101114.97;5060501;28;20119;-76
2022/04/13 00:35:29;;;;;;;17.70;6.90;;;;;;;14.12;70.23;101129.09;5058312;28;20041;-76
2022/04/13 00:37:54;;;;;;;23.45;6.25;;;;;;;14.13;70.48;101124.50;5044446;28;20022;-77
2022/04/13 00:40:20;;;;;;;18.25;6.40;;;;;;;14.11;70.33;101129.28;5056825;28;20349;-77
2022/04/13 00:42:45;;;;;;;18.17;6.50;;;;;;;14.05;70.83;101126.31;5060592;28;20055;-78
2022/04/13 00:45:10;;;;;;;22.58;7.50;;;;;;;14.00;70.94;101120.66;5067431;28;20025;-79
2022/04/13 00:47:42;;;;;;;21.25;6.05;;;;;;;14.02;71.09;101121.31;5079205;28;20024;-79
2022/04/13 00:50:10;;;;;;;22.25;6.72;;;;;;;14.07;71.40;101133.44;5078622;28;20021;-80
2022/04/13 00:52:39;;;;;;;18.10;7.10;;;;;;;14.09;71.42;101124.06;5078328;28;20067;-79
2022/04/13 00:55:08;;;;;;;18.25;7.00;;;;;;;14.12;71.65;101129.09;5063403;28;20041;-79
2022/04/13 00:57:34;;;;;;;14.18;6.78;;;;;;;14.15;71.65;101123.28;5077278;28;20066;-79
2022/04/13 01:00:02;;;;;;;17.58;6.93;;;;;;;14.16;71.63;101122.22;5078416;28;20029;-79
2022/04/13 01:02:29;;;;;;;20.30;7.55;;;;;;;14.20;72.01;101122.69;5078174;28;20108;-78
2022/04/13 01:04:54;;;;;;;24.48;6.70;;;;;;;14.15;71.81;101125.97;5077425;28;20032;-80
2022/04/13 01:07:21;;;;;;;23.02;6.93;;;;;;;14.15;72.04;101131.41;5077091;28;20037;-78
2022/04/13 01:09:49;;;;;;;13.70;6.65;;;;;;;14.14;72.33;101127.03;5077836;28;20044;-78
2022/04/13 01:12:14;;;;;;;11.98;5.65;;;;;;;14.16;72.19;101132.22;5078191;28;20017;-79
2022/04/13 01:14:39;;;;;;;18.15;5.72;;;;;;;14.12;72.50;101134.50;5077843;28;20093;-79
2022/04/13 01:17:06;;;;;;;22.10;6.70;;;;;;;14.12;72.70;101139.09;5075783;28;20053;-77
2022/04/13 01:19:32;;;;;;;16.08;6.07;;;;;;;14.07;72.52;101136.97;5077216;28;20024;-78
2022/04/13 01:22:03;;;;;;;21.00;6.45;;;;;;;14.07;72.84;101131.56;5076243;28;20051;-77
2022/04/13 01:24:29;;;;;;;20.48;7.13;;;;;;;14.01;72.99;101135.88;5077919;28;20039;-78
2022/04/13 01:26:55;;;;;;;21.60;6.32;;;;;;;14.07;73.39;101136.13;5077719;28;20109;-78
2022/04/13 01:29:21;;;;;;;16.77;6.97;;;;;;;14.05;73.39;101128.19;5078367;28;20025;-79
2022/04/13 01:31:46;;;;;;;18.40;6.60;;;;;;;14.00;73.43;101138.78;5077705;28;20037;-77
2022/04/13 01:34:13;;;;;;;21.13;6.78;;;;;;;13.99;73.41;101143.38;5068359;28;20025;-76
2022/04/13 01:36:38;;;;;;;15.75;6.63;;;;;;;13.95;73.58;101139.38;5066746;28;20031;-76
2022/04/13 01:39:05;;;;;;;18.63;6.78;;;;;;;13.93;73.90;101140.59;5072337;28;20017;-80
2022/04/13 01:41:30;;;;;;;24.92;7.00;;;;;;;13.93;74.12;101148.72;5077104;28;20039;-77
2022/04/13 01:43:56;;;;;;;19.52;6.07;;;;;;;13.92;74.21;101141.63;5075442;28;20029;-77
2022/04/13 01:46:21;;;;;;;18.60;6.35;;;;;;;13.90;74.49;101152.69;5074901;28;20064;-78
2022/04/13 01:48:47;;;;;;;16.48;6.30;;;;;;;13.83;74.54;101154.47;5072565;28;20033;-79
2022/04/13 01:51:12;;;;;;;22.08;6.57;;;;;;;13.79;74.59;101151.31;5071876;28;20060;-78
2022/04/13 01:53:37;;;;;;;19.27;6.55;;;;;;;13.75;75.04;101160.88;5073261;28;20036;-79
2022/04/13 01:56:03;;;;;;;19.35;6.68;;;;;;;13.71;75.18;101156.88;5069055;28;20052;-78
2022/04/13 01:58:29;;;;;;;24.88;5.90;;;;;;;13.69;75.48;101150.84;5072982;28;20036;-77
2022/04/13 02:00:55;;;;;;;21.20;6.55;;;;;;;13.71;75.68;101153.31;5072005;28;20016;-77
2022/04/13 02:03:21;;;;;;;18.70;6.13;;;;;;;13.66;75.89;101151.19;5071999;28;20029;-79
2022/04/13 02:05:47;;;;;;;18.58;6.75;;;;;;;13.59;76.12;101158.44;5067759;28;20029;-77
2022/04/13 02:08:12;;;;;;;18.95;6.95;;;;;;;13.53;76.55;101161.91;5071061;28;20024;-79
2022/04/13 02:10:37;;;;;;;22.05;6.72;;;;;;;13.48;76.77;101164.34;5069949;28;20070;-77
2022/04/13 02:13:03;;;;;;;18.42;7.15;;;;;;;13.47;77.04;101174.31;5070900;28;20051;-79
2022/04/13 02:15:28;;;;;;;21.95;6.85;;;;;;;13.44;77.18;101168.47;5071613;28;20076;-79
2022/04/13 02:17:53;;;;;;;23.17;7.18;;;;;;;13.41;77.62;101179.69;5068817;28;20053;-77
2022/04/13 02:20:19;;;;;;;18.55;6.95;;;;;;;13.39;77.79;101174.47;5069563;28;20040;-76
2022/04/13 02:22:47;;;;;;;21.90;6.65;;;;;;;13.40;77.98;101170.72;5069840;28;20044;-77
2022/04/13 02:25:12;;;;;;;;;;;;;;;13.37;78.29;101165.69;5069405;28;20043;-76
2022/04/13 02:27:38;;;;;;;17.67;6.20;;;;;;;13.35;78.49;101178.59;5071296;28;19944;-79
2022/04/13 02:30:04;;;;;;;17.73;7.40;;;;;;;13.29;78.69;101177.47;5076565;28;20040;-79
2022/04/13 02:32:29;;;;;;;22.33;7.63;;;;;;;13.25;78.86;101184.28;5069043;28;20093;-80
2022/04/13 02:34:54;;;;;;;19.08;6.93;;;;;;;13.20;79.15;101183.16;5076995;28;20024;-79
2022/04/13 02:37:20;;;;;;;18.77;7.15;;;;;;;13.21;79.35;101182.97;5076932;28;20045;-79
2022/04/13 02:39:45;;;;;;;15.15;6.55;;;;;;;13.19;79.25;101171.50;5077007;28;20021;-80
2022/04/13 02:42:15;;;;;;;19.63;7.03;;;;;;;13.19;79.45;101174.19;5077036;28;20112;-79
2022/04/13 02:44:41;;;;;;;15.77;6.85;;;;;;;13.15;79.59;101175.63;5075560;28;20116;-77
2022/04/13 02:47:06;;;;;;;20.23;7.85;;;;;;;13.12;79.75;101181.41;5057005;28;20135;-77
2022/04/13 02:49:31;;;;;;;22.23;7.45;;;;;;;13.12;80.06;101171.44;5058650;28;20056;-77
2022/04/13 02:51:57;;;;;;;20.77;7.70;;;;;;;13.07;79.74;101178.44;5059064;28;20485;-76
2022/04/13 02:54:22;;;;;;;20.58;7.30;;;;;;;13.07;80.35;101175.75;5065148;28;20035;-78
2022/04/13 02:56:48;;;;;;;21.92;7.47;;;;;;;13.00;80.22;101167.53;5062547;28;20033;-77
2022/04/13 02:59:13;;;;;;;19.70;7.40;;;;;;;12.99;80.39;101179.41;5058285;28;20028;-76
2022/04/13 03:01:38;;;;;;;21.05;7.55;;;;;;;13.02;80.57;101180.88;5058746;28;20173;-77
2022/04/13 03:04:04;;;;;;;18.30;7.70;;;;;;;13.05;80.62;101188.59;5062537;28;20033;-77
2022/04/13 03:06:29;;;;;;;24.38;8.05;;;;;;;13.01;80.36;101193.56;5062643;28;20044;-76
2022/04/13 03:08:54;;;;;;;20.30;7.90;;;;;;;13.02;80.52;101199.78;5065089;28;20040;-78
2022/04/13 03:11:20;;;;;;;24.70;8.07;;;;;;;13.05;80.70;101207.50;5071178;28;20052;-80
2022/04/13 03:13:46;;;;;;;18.77;9.25;;;;;;;13.04;80.36;101195.03;5071427;28;20036;-79
2022/04/13 03:16:12;;;;;;;16.98;8.00;;;;;;;13.05;80.49;101207.50;5064358;28;20020;-78
2022/04/13 03:18:37;;;;;;;30.88;8.98;;;;;;;13.04;80.53;101212.09;5066533;28;20401;-79
2022/04/13 03:21:02;;;;;;;20.30;8.57;;;;;;;13.09;80.66;101208.81;5068105;28;20028;-79
2022/04/13 03:23:28;;;;;;;24.65;8.82;;;;;;;13.08;80.37;101209.84;5075434;28;20041;-77
2022/04/13 03:25:53;;;;;;;22.70;9.00;;;;;;;13.08;80.29;101220.66;5075327;28;20547;-78
2022/04/13 03:28:22;;;;;;;28.67;9.88;;;;;;;13.04;80.67;101213.97;5075354;28;20060;-78
2022/04/13 03:30:47;;;;;;;18.70;8.50;;;;;;;13.01;80.60;101217.03;5075800;28;20029;-79
2022/04/13 03:33:12;;;;;;;23.25;10.38;;;;;;;12.98;80.59;101228.19;5075445;28;20032;-76
2022/04/13 03:35:38;;;;;;;22.67;9.50;;;;;;;12.95;80.81;101222.19;5071525;28;20037;-78
2022/04/13 03:38:03;;;;;;;28.45;9.40;;;;;;;12.95;81.06;101224.00;5073279;28;20035;-78
2022/04/13 03:40:28;;;;;;;23.15;10.35;;;;;;;12.95;81.11;101224.00;5074246;28;20040;-79
2022/04/13 03:42:54;;;;;;;17.35;9.55;;;;;;;12.86;81.08;101234.09;5075660;28;20036;-78
2022/04/13 03:45:20;;;;;;;19.20;9.43;;;;;;;12.81;81.56;101233.81;5075975;28;20013;-79
2022/04/13 03:47:45;;;;;;;23.10;8.65;;;;;;;12.84;81.77;101230.72;5075330;28;20056;-79
2022/04/13 03:50:11;;;;;;;26.67;11.07;;;;;;;12.80;81.46;101231.31;5075236;28;20021;-79
2022/04/13 03:52:37;;;;;;;25.42;10.98;;;;;;;12.75;81.67;101239.97;5075746;28;20024;-79
2022/04/13 03:55:04;;;;;;;30.90;10.65;;;;;;;12.74;81.90;101231.03;5075173;28;20109;-79
2022/04/13 03:57:30;;;;;;;24.58;11.20;;;;;;;12.71;82.01;101234.09;5074991;28;20021;-80
2022/04/13 03:59:56;;;;;;;27.33;11.07;;;;;;;12.72;82.23;101235.78;5075517;28;20028;-79
2022/04/13 04:02:21;;;;;;;23.45;10.77;;;;;;;12.71;82.09;101238.66;5064069;28;20021;-79
2022/04/13 04:04:46;;;;;;;27.17;10.60;;;;;;;12.66;82.22;101236.50;5075706;28;20029;-78
2022/04/13 04:07:12;;;;;;;27.33;11.40;;;;;;;12.56;82.34;101230.56;5075103;28;20041;-78
2022/04/13 04:09:37;;;;;;;21.70;11.30;;;;;;;12.47;82.79;101231.66;5075425;28;20044;-78
2022/04/13 04:12:02;;;;;;;25.02;11.15;;;;;;;12.40;83.18;101253.19;5074174;28;20028;-79
2022/04/13 04:14:28;;;;;;;29.38;11.98;;;;;;;12.38;83.32;101249.81;5075449;28;20178;-79
2022/04/13 04:16:53;;;;;;;26.02;11.77;;;;;;;12.40;83.59;101249.63;5074880;28;20021;-80
2022/04/13 04:19:19;;;;;;;27.55;11.65;;;;;;;12.34;83.57;101256.59;5074748;28;20033;-79
2022/04/13 04:21:44;;;;;;;30.67;12.25;;;;;;;12.35;83.74;101255.59;5075176;28;20071;-79
2022/04/13 04:24:09;;;;;;;24.05;11.27;;;;;;;12.30;84.08;101258.00;5071863;28;20029;-78
2022/04/13 04:26:34;;;;;;;25.35;11.25;;;;;;;12.29;83.84;101264.41;5075062;28;20013;-76
2022/04/13 04:29:00;;;;;;;30.98;11.43;;;;;;;12.27;83.93;101275.38;5075137;28;20028;-78
2022/04/13 04:34:09;;;;;;;27.60;11.35;;;;;;;12.20;84.25;101279.00;5065434;28;20055;-79
2022/04/13 04:36:34;;;;;;;29.58;12.50;;;;;;;12.14;84.46;101274.31;5074542;28;20025;-77
2022/04/13 04:39:00;;;;;;;29.75;11.73;;;;;;;12.10;84.67;101289.19;5070294;28;20029;-79
2022/04/13 04:41:25;;;;;;;30.65;12.10;;;;;;;12.06;84.71;101278.78;5074238;28;20040;-78
2022/04/13 04:43:50;;;;;;;25.00;11.75;;;;;;;12.03;84.97;101291.75;5070780;28;20032;-77
2022/04/13 04:46:16;;;;;;;32.75;12.38;;;;;;;11.97;85.27;101289.78;5073483;28;20021;-79
2022/04/13 04:48:42;;;;;;;26.25;12.55;;;;;;;11.90;85.56;101295.09;5066726;28;20047;-79
2022/04/13 04:51:10;;;;;;;25.50;12.10;;;;;;;11.86;85.75;101296.44;5072180;28;20023;-77
2022/04/13 04:53:36;;;;;;;25.65;11.73;;;;;;;11.85;85.86;101297.44;5069146;28;20048;-79
2022/04/13 04:56:01;;;;;;;25.30;11.18;;;;;;;11.85;86.16;101308.25;5068443;28;20221;-79
2022/04/13 04:58:27;;;;;;;25.02;12.48;;;;;;;11.83;86.15;101310.25;5073710;28;20064;-80
2022/04/13 05:00:53;;;;;;;27.15;11.70;;;;;;;11.82;86.47;101303.19;5074617;28;20037;-78
2022/04/13 05:03:18;;;;;;;28.08;12.52;;;;;;;11.83;86.59;101311.09;5074101;28;20189;-80
2022/04/13 05:05:44;;;;;;;26.75;12.93;;;;;;;11.80;86.47;101310.63;5072222;28;20108;-77
2022/04/13 05:08:09;;;;;;;30.88;12.73;;;;;;;11.76;86.71;101312.00;5066007;28;20029;-76
2022/04/13 05:10:35;;;;;;;23.73;12.15;;;;;;;11.80;86.87;101316.03;5072867;28;20025;-78
2022/04/13 05:13:02;;;;;;;21.20;11.18;;;;;;;11.78;86.71;101323.44;5073709;28;20021;-77
2022/04/13 05:15:27;;;;;;;25.55;11.60;;;;;;;11.77;86.73;101321.75;5073985;28;20025;-78
2022/04/13 05:17:53;;;;;;;24.65;11.48;;;;;;;11.80;86.84;101318.72;5073802;28;20036;-79
2022/04/13 05:20:18;;;;;;;20.83;11.05;;;;;;;11.84;86.84;101314.63;5070944;28;20049;-78
2022/04/13 05:22:43;;;;;;;26.90;11.15;;;;;;;11.88;86.74;101321.38;5059239;28;20769;-79
2022/04/13 05:25:13;;;;;;;28.15;11.55;;;;;;;11.95;86.59;101329.59;5056413;28;20138;-78
2022/04/13 05:27:39;;;;;;;25.98;11.15;;;;;;;11.98;86.31;101329.22;5050370;28;20380;-77
2022/04/13 05:30:06;;;;;;;32.05;10.13;;;;;;;12.01;86.19;101329.72;5059443;28;20051;-80
2022/04/13 05:32:32;;;;;;;29.60;10.07;;;;;;;12.12;86.11;101335.72;5064283;28;20079;-80
2022/04/13 05:35:01;;;;;;;24.45;10.15;;;;;;;12.16;85.59;101342.44;5065871;28;20017;-79
2022/04/13 05:37:27;;;;;;;23.58;9.95;;;;;;;12.26;85.42;101337.63;5059526;28;20022;-78
2022/04/13 05:39:53;;;;;;;19.02;9.98;;;;;;;12.38;85.42;101341.59;5062147;28;20063;-78
2022/04/13 05:42:24;;;;;;;23.10;10.07;;;;;;;12.40;84.43;101349.47;5056740;28;20336;-77
2022/04/13 05:44:50;;;;;;;16.40;8.95;;;;;;;12.60;84.59;101353.38;5063533;28;20029;-77
2022/04/13 05:47:16;;;;;;;22.30;9.27;;;;;;;12.80;83.62;101356.41;5064640;28;20021;-79
2022/04/13 05:49:41;;;;;;;17.60;8.98;;;;;;;12.97;82.42;101367.88;5064280;28;20078;-79
2022/04/13 05:52:07;;;;;;;19.02;8.77;;;;;;;13.08;81.28;101367.41;5064980;28;20060;-77
2022/04/13 05:54:32;;;;;;;23.83;8.40;;;;;;;13.17;80.90;101373.56;5068251;28;20037;-78
2022/04/13 05:56:57;;;;;;;19.50;7.68;;;;;;;13.13;80.67;101367.69;5063260;28;20073;-79
2022/04/13 05:59:23;;;;;;;19.90;8.25;;;;;;;13.11;80.42;101374.28;5068325;28;20064;-78
2022/04/13 06:01:48;;;;;;;25.10;8.02;;;;;;;13.09;80.50;101376.38;5059929;28;20053;-79
2022/04/13 06:04:13;;;;;;;18.45;8.20;;;;;;;13.10;80.52;101370.75;5065327;28;20013;-79
2022/04/13 06:06:38;;;;;;;18.08;8.07;;;;;;;13.18;80.50;101377.94;5067153;28;20040;-79
2022/04/13 06:09:05;;;;;;;17.67;7.70;;;;;;;13.30;80.46;101387.31;5062715;28;20043;-77
2022/04/13 06:11:30;;;;;;;18.65;7.88;;;;;;;13.28;79.69;101386.66;5069276;28;20017;-77
2022/04/13 06:13:55;;;;;;;23.67;7.82;;;;;;;13.46;79.68;101385.44;5067571;28;20125;-78
2022/04/13 06:16:20;;;;;;;21.65;7.47;;;;;;;13.68;78.81;101395.28;5066631;28;20016;-77
2022/04/13 06:18:46;;;;;;;19.73;8.05;;;;;;;13.80;77.54;101395.66;5066596;28;20031;-77
2022/04/13 06:21:11;;;;;;;20.65;9.25;;;;;;;13.86;77.61;101411.13;5066115;28;20081;-78
2022/04/13 06:23:36;;;;;;;17.05;7.25;;;;;;;13.81;76.94;101408.13;5066706;28;20021;-79
2022/04/13 06:26:02;;;;;;;19.02;7.90;;;;;;;13.71;77.12;101411.13;5060566;28;20071;-78
2022/04/13 06:28:27;;;;;;;15.93;7.85;;;;;;;13.71;77.65;101410.31;5069928;28;20023;-79
2022/04/13 06:30:52;;;;;;;25.17;8.13;;;;;;;13.49;77.17;101409.41;5064769;28;20219;-78
2022/04/13 06:33:18;;;;;;;20.00;8.75;;;;;;;13.39;78.07;101424.03;5065047;28;20044;-79
2022/04/13 06:35:44;;;;;;;22.27;8.32;;;;;;;13.34;78.41;101429.16;5066266;28;20040;-77
2022/04/13 06:38:09;;;;;;;23.30;8.25;;;;;;;13.22;78.67;101427.91;5061480;28;20030;-77
2022/04/13 06:40:34;;;;;;;20.02;8.20;;;;;;;13.22;78.89;101433.31;5068151;28;20020;-79
2022/04/13 06:43:00;;;;;;;23.33;8.57;;;;;;;13.27;78.97;101430.94;5064739;28;20102;-79
2022/04/13 06:45:25;;;;;;;25.88;8.63;;;;;;;13.29;78.94;101434.28;5060306;28;20041;-79
2022/04/13 06:47:50;;;;;;;21.10;8.27;;;;;;;13.44;78.80;101445.09;5068095;28;20056;-78
2022/04/13 06:50:16;;;;;;;19.20;7.85;;;;;;;13.61;77.94;101440.34;5060203;28;20036;-79
2022/04/13 06:52:42;;;;;;;25.30;7.70;;;;;;;13.83;77.08;101444.81;5057609;28;20032;-77
2022/04/13 06:55:11;;;;;;;20.52;7.25;;;;;;;14.04;76.68;101448.59;5064773;28;20025;-77
2022/04/13 06:57:38;;;;;;;20.40;7.25;;;;;;;14.03;76.11;101455.88;5073289;28;20025;-78
2022/04/13 07:00:08;;;;;;;19.20;7.10;;;;;;;14.24;76.18;101448.81;5071345;28;20029;-78
2022/04/13 07:02:35;;;;;;;17.52;6.93;;;;;;;14.35;75.70;101464.59;5072438;28;20037;-78
2022/04/13 07:05:00;;;;;;;18.63;6.97;;;;;;;14.50;74.31;101469.94;5053160;28;20025;-78
2022/04/13 07:07:26;;;;;;;18.02;5.80;;;;;;;14.49;73.61;101474.50;5072008;28;20059;-78
2022/04/13 07:09:51;;;;;;;15.48;6.15;;;;;;;14.59;73.52;101471.53;5074104;28;20021;-78
2022/04/13 07:12:16;;;;;;;23.20;7.53;;;;;;;14.57;73.44;101478.16;5065513;28;20069;-78
2022/04/13 07:14:42;;;;;;;22.45;6.40;;;;;;;14.64;73.71;101485.34;5071292;28;20033;-77
2022/04/13 07:17:10;;;;;;;21.30;6.35;;;;;;;14.62;73.31;101487.38;5068288;28;20063;-78
2022/04/13 07:19:36;;;;;;;17.02;6.10;;;;;;;14.68;72.39;101486.59;5052486;28;20115;-77
2022/04/13 07:22:01;;;;;;;26.10;7.03;;;;;;;14.58;73.35;101482.53;5056559;28;20021;-78
2022/04/13 07:24:27;;;;;;;14.30;5.80;;;;;;;14.34;73.14;101486.41;5046279;28;20048;-77
2022/04/13 07:26:53;;;;;;;21.30;6.35;;;;;;;14.31;73.89;101492.22;5062243;28;20059;-78
2022/04/13 07:29:18;;;;;;;14.52;5.95;;;;;;;14.37;74.47;101473.31;5070517;28;20033;-78
2022/04/13 07:31:44;;;;;;;25.75;7.05;;;;;;;14.48;74.64;101491.81;5066513;28;20029;-76
2022/04/13 07:34:09;;;;;;;24.38;6.13;;;;;;;14.54;73.52;101494.81;5069890;28;20120;-77
2022/04/13 07:36:34;;;;;;;22.33;5.82;;;;;;;14.68;73.54;101497.44;5070854;28;20028;-79
2022/04/13 07:39:01;;;;;;;18.25;6.00;;;;;;;14.68;72.51;101504.75;5055402;28;20119;-79
2022/04/13 07:41:26;;;;;;;13.40;5.40;;;;;;;14.71;72.39;101513.31;5069280;28;20067;-78
2022/04/13 07:43:52;;;;;;;11.60;5.00;;;;;;;14.43;73.06;101517.78;5051156;28;20046;-79
2022/04/13 07:46:17;;;;;;;20.95;5.82;;;;;;;14.38;73.31;101514.81;5061895;28;20029;-79
2022/04/13 07:48:42;;;;;;;17.95;5.90;;;;;;;14.45;73.76;101516.53;5065655;28;20029;-80
2022/04/13 07:51:08;;;;;;;27.17;6.65;;;;;;;14.50;74.12;101510.56;5067354;28;20029;-80
2022/04/13 07:53:33;;;;;;;21.25;6.00;;;;;;;14.53;74.31;101522.91;5050935;28;20071;-79
2022/04/13 07:55:58;;;;;;;17.77;6.05;;;;;;;14.45;73.41;101523.81;5053914;28;20047;-79
2022/04/13 07:58:24;;;;;;;19.80;6.20;;;;;;;14.48;73.65;101526.16;5072607;28;20029;-78
2022/04/13 08:00:49;;;;;;;23.38;5.85;;;;;;;14.29;73.66;101519.47;5054607;28;20041;-79
2022/04/13 08:03:15;;;;;;;17.35;5.97;;;;;;;14.17;73.69;101532.69;5057049;28;20029;-77
2022/04/13 08:05:40;;;;;;;20.23;6.30;;;;;;;14.15;74.45;101518.47;5071049;28;20025;-77
2022/04/13 08:08:06;;;;;;;18.33;6.32;;;;;;;14.19;74.17;101525.22;5069774;28;20351;-77
2022/04/13 08:10:31;;;;;;;17.00;5.50;;;;;;;14.01;74.56;101522.06;5072767;28;20071;-78
2022/04/13 08:12:56;;;;;;;23.05;6.82;;;;;;;13.96;74.87;101522.63;5069919;28;20056;-79
2022/04/13 08:15:22;;;;;;;23.35;6.70;;;;;;;14.02;75.05;101529.13;5067027;28;20021;-77
2022/04/13 08:17:47;;;;;;;22.13;6.85;;;;;;;14.00;74.50;101525.78;5053717;28;20067;-78
2022/04/13 08:20:14;;;;;;;19.75;6.28;;;;;;;14.07;74.98;101532.13;5069684;28;20008;-77
2022/04/13 08:22:40;;;;;;;18.48;6.32;;;;;;;14.16;74.70;101538.25;5072389;28;20086;-77
2022/04/13 08:25:05;;;;;;;18.52;6.40;;;;;;;14.32;74.45;101546.16;5073499;28;20037;-80
2022/04/13 08:27:30;;;;;;;15.77;6.35;;;;;;;14.45;74.11;101543.63;5065189;28;20036;-78
2022/04/13 08:29:56;;;;;;;21.63;6.45;;;;;;;14.62;72.79;101552.41;5050890;28;20048;-78
2022/04/13 08:32:22;;;;;;;17.88;6.45;;;;;;;14.64;72.33;101560.31;5061573;28;20026;-78
2022/04/13 08:34:52;;;;;;;18.92;6.53;;;;;;;14.67;72.17;101557.25;5074309;28;20025;-78
2022/04/13 08:37:20;;;;;;;21.50;6.57;;;;;;;14.58;72.09;101550.25;5062951;28;20041;-78
2022/04/13 08:39:46;;;;;;;21.48;6.15;;;;;;;14.74;72.42;101560.84;5044537;28;20062;-78
2022/04/13 08:42:34;;;;;;;18.02;6.10;;;;;;;14.58;71.92;101556.50;5072259;28;20025;-77
2022/04/13 08:45:06;;;;;;;15.10;6.72;;;;;;;14.43;72.68;101551.13;5050388;28;20033;-77
2022/04/13 08:47:36;;;;;;;16.70;6.10;;;;;;;14.45;72.16;101545.50;5067918;28;20052;-79
2022/04/13 08:50:02;;;;;;;30.08;6.82;;;;;;;14.55;72.87;101546.06;5069309;28;20021;-79
2022/04/13 08:52:32;;;;;;;17.63;5.70;;;;;;;14.69;72.60;101547.03;5074431;28;20056;-78
2022/04/13 08:55:16;;;;;;;13.80;5.78;;;;;;;14.79;71.41;101546.75;5072541;28;20021;-77
2022/04/13 08:57:49;;;;;;;12.95;5.68;;;;;;;14.97;71.96;101549.84;5061231;28;20049;-79
2022/04/13 09:00:16;;;;;;;14.38;5.60;;;;;;;15.04;70.11;101569.72;5057899;28;20021;-78
2022/04/13 09:02:54;;;;;;;16.57;5.13;;;;;;;15.03;69.95;101573.47;5071675;28;20033;-75
2022/04/13 09:05:27;;;;;;;17.95;6.32;;;;;;;15.11;70.20;101576.06;5077461;28;20020;-77
2022/04/13 09:08:18;;;;;;;18.55;6.07;;;;;;;15.18;69.72;101588.84;5077782;28;20128;-76
2022/04/13 09:10:46;;;;;;;16.95;5.15;;;;;;;15.25;69.37;101584.31;5068696;28;20044;-76
2022/04/13 09:13:12;;;;;;;17.08;5.50;;;;;;;15.43;69.84;101598.25;5061592;28;20024;-77
2022/04/13 09:15:39;;;;;;;16.20;5.68;;;;;;;15.57;69.66;101600.03;5069001;28;20017;-78
2022/04/13 09:18:08;;;;;;;27.80;5.70;;;;;;;15.59;67.98;101597.97;5076407;28;20036;-78
2022/04/13 09:20:35;;;;;;;21.88;6.55;;;;;;;15.39;68.00;101606.97;5076105;28;20047;-78
2022/04/13 09:23:00;;;;;;;23.52;7.15;;;;;;;15.34;68.92;101602.13;5075617;28;20017;-78
2022/04/13 09:25:33;;;;;;;19.13;6.80;;;;;;;15.31;69.67;101608.78;5078218;28;20033;-77
2022/04/13 09:27:59;;;;;;;18.67;6.13;;;;;;;15.28;69.18;101611.03;5073755;28;20362;-78
2022/04/13 09:30:26;;;;;;;19.23;6.90;;;;;;;15.31;69.51;101621.50;5077756;28;20047;-78
2022/04/13 09:32:51;;;;;;;22.35;6.10;;;;;;;15.26;69.92;101623.94;5069520;28;20045;-77
2022/04/13 09:35:17;;;;;;;16.02;5.50;;;;;;;15.08;69.92;101627.09;5076739;28;20036;-79
2022/04/13 09:37:43;;;;;;;19.60;6.47;;;;;;;15.01;69.77;101628.91;5077199;28;20033;-78
2022/04/13 09:40:09;;;;;;;18.20;6.15;;;;;;;14.89;70.59;101624.00;5062708;28;20099;-78
2022/04/13 09:42:36;;;;;;;19.30;5.90;;;;;;;14.92;70.96;101623.59;5058097;28;20102;-78
2022/04/13 09:45:02;;;;;;;15.63;5.35;;;;;;;14.93;70.75;101625.28;5072373;28;20043;-77
2022/04/13 09:47:33;;;;;;;23.90;5.15;;;;;;;15.01;70.54;101632.47;5066833;28;20040;-77
2022/04/13 09:49:59;;;;;;;13.00;4.38;;;;;;;14.85;70.47;101633.53;5074559;28;20040;-79
2022/04/13 09:52:40;;;;;;;15.52;5.32;;;;;;;14.80;70.95;101638.69;5064489;28;20047;-76
2022/04/13 09:55:07;;;;;;;17.20;4.70;;;;;;;14.91;71.45;101627.34;5075094;28;20063;-77
2022/04/13 09:57:32;;;;;;;18.45;4.97;;;;;;;14.89;70.99;101632.13;5070897;28;20025;-76
2022/04/13 10:00:06;;;;;;;16.30;5.07;;;;;;;14.96;70.98;101629.50;5074585;28;20071;-78
2022/04/13 10:02:39;;;;;;;13.25;4.82;;;;;;;14.84;71.27;101633.72;5068350;28;20029;-77
2022/04/13 10:05:07;;;;;;;15.20;5.07;;;;;;;14.77;71.45;101636.38;5074284;28;20028;-77
2022/04/13 10:07:34;;;;;;;20.40;6.45;;;;;;;14.68;71.91;101635.63;5073819;28;20125;-78
2022/04/13 10:09:59;;;;;;;17.08;5.82;;;;;;;14.74;72.36;101638.59;5076079;28;20052;-77
2022/04/13 10:12:24;;;;;;;22.33;6.47;;;;;;;14.76;72.67;101641.97;5077800;28;20020;-77
2022/04/13 10:14:50;;;;;;;14.73;6.22;;;;;;;14.79;72.24;101644.28;5080806;28;20072;-78
2022/04/13 10:17:20;;;;;;;23.67;6.43;;;;;;;14.83;72.17;101646.44;5070967;28;20033;-78
2022/04/13 10:19:54;;;;;;;15.65;6.53;;;;;;;15.00;71.80;101644.31;5073906;28;20044;-77
2022/04/13 10:22:20;;;;;;;21.88;7.13;;;;;;;14.96;71.37;101650.34;5072785;28;20033;-77
2022/04/13 10:24:46;;;;;;;18.40;7.25;;;;;;;14.92;72.02;101645.28;5069779;28;20055;-78
2022/04/13 10:27:16;;;;;;;22.45;7.95;;;;;;;15.04;71.62;101652.94;5067104;28;20069;-78
2022/04/13 10:29:43;;;;;;;17.20;7.07;;;;;;;15.06;71.13;101649.00;5071561;28;20037;-77
2022/04/13 10:32:22;;;;;;;23.33;7.15;;;;;;;15.12;70.83;101661.78;5072636;28;20037;-76
2022/04/13 10:34:52;;;;;;;21.30;7.00;;;;;;;15.22;70.60;101660.63;5069097;28;20081;-79
2022/04/13 10:37:22;;;;;;;19.65;6.68;;;;;;;15.18;70.50;101664.75;5070136;28;20028;-78
2022/04/13 10:39:48;;;;;;;14.90;7.13;;;;;;;15.15;70.44;101663.28;5074562;28;20150;-77
2022/04/13 10:42:16;;;;;;;17.00;6.80;;;;;;;15.04;70.89;101653.78;5072967;28;20365;-77
2022/04/13 10:45:03;;;;;;;19.58;7.68;;;;;;;14.98;69.92;101656.38;5071670;28;20036;-76
2022/04/13 10:47:36;;;;;;;18.52;6.63;;;;;;;15.13;69.93;101652.59;5075430;28;20051;-78
2022/04/13 10:50:03;;;;;;;13.43;6.63;;;;;;;15.19;69.47;101669.97;5070251;28;20020;-77
2022/04/13 10:52:31;;;;;;;19.10;6.70;;;;;;;15.31;69.19;101659.47;5067045;28;20033;-79
2022/04/13 10:55:05;;;;;;;27.33;7.78;;;;;;;15.26;69.05;101661.91;5052778;28;20056;-80
2022/04/13 10:57:43;;;;;;;19.83;7.97;;;;;;;15.55;69.47;101661.78;5053313;28;20037;-78
2022/04/13 11:00:10;;;;;;;;;;;;;;;15.66;68.63;101671.28;5057283;28;20136;-81
2022/04/13 11:02:56;;;;;;;29.00;7.45;;;;;;;15.78;68.64;101668.91;5050347;28;19917;-79
2022/04/13 11:05:25;;;;;;;19.75;8.20;;;;;;;15.83;68.14;101662.91;5038422;28;20100;-79
2022/04/13 11:07:57;;;;;;;13.43;6.50;;;;;;;16.02;68.77;101667.63;5046591;28;20045;-78
2022/04/13 11:10:22;;;;;;;13.60;7.05;;;;;;;16.20;68.26;101664.41;5050622;28;20045;-78
2022/04/13 11:12:48;;;;;;;21.95;9.10;;;;;;;16.38;67.04;101661.19;5049096;28;20052;-80
2022/04/13 11:15:14;;;;;;;19.17;7.68;;;;;;;16.40;66.41;101667.25;5061714;28;20063;-81
2022/04/13 11:17:41;;;;;;;19.15;8.20;;;;;;;16.50;66.85;101670.44;5055826;28;20033;-79